Time;durP1;ratioP1;P1;durP2;ratioP2;P2;SDS_P1;SDS_P2;PMS_P1;PMS_P2;Temp;Humidity;BMP_temperature;BMP_pressure;BME280_temperature;BME280_humidity;BME280_pressure;Samples;Min_cycle;Max_cycle;Signal;HPM_P1;HPM_P2
2021/07/03 00:01:28;;;;;;;11.23;7.40;;;19.90;68.10;;;;;;5072317;28;20021;-72
2021/07/03 00:03:54;;;;;;;9.15;7.30;;;20.00;68.60;;;;;;5071547;28;20029;-73
2021/07/03 00:06:20;;;;;;;10.35;7.38;;;19.90;68.30;;;;;;5073152;28;20041;-72
2021/07/03 00:08:46;;;;;;;11.73;7.80;;;19.90;68.30;;;;;;5072715;28;20025;-72
2021/07/03 00:11:12;;;;;;;12.27;8.38;;;20.00;68.30;;;;;;5073214;28;20108;-72
2021/07/03 00:13:39;;;;;;;9.43;7.35;;;19.90;68.30;;;;;;5072513;28;20435;-72
2021/07/03 00:16:05;;;;;;;10.90;7.57;;;19.90;68.30;;;;;;5072404;28;20078;-74
2021/07/03 00:18:31;;;;;;;13.23;8.52;;;20.00;68.30;;;;;;5072034;28;20470;-72
2021/07/03 00:20:57;;;;;;;10.05;7.82;;;19.90;68.00;;;;;;5071966;28;20109;-71
2021/07/03 00:23:23;;;;;;;12.95;7.90;;;19.90;68.10;;;;;;5072060;28;20474;-72
2021/07/03 00:25:49;;;;;;;12.00;8.13;;;19.90;68.10;;;;;;5070693;28;20052;-71
2021/07/03 00:28:14;;;;;;;9.27;7.45;;;19.90;68.20;;;;;;5071918;28;20024;-72
2021/07/03 00:30:40;;;;;;;14.77;7.75;;;19.90;68.10;;;;;;5071783;28;20257;-72
2021/07/03 00:33:06;;;;;;;20.45;8.65;;;19.90;68.20;;;;;;5073256;28;20427;-72
2021/07/03 00:35:32;;;;;;;10.77;8.20;;;19.90;68.20;;;;;;5076823;28;20144;-72
2021/07/03 00:37:57;;;;;;;11.13;8.05;;;19.80;68.10;;;;;;5071852;28;20043;-73
2021/07/03 00:40:23;;;;;;;9.10;7.72;;;19.80;68.10;;;;;;5071726;28;20101;-72
2021/07/03 00:42:49;;;;;;;11.27;7.80;;;19.80;68.00;;;;;;5074914;28;20116;-72
2021/07/03 00:45:15;;;;;;;9.70;7.72;;;19.80;68.00;;;;;;5075870;28;20024;-72
2021/07/03 00:47:41;;;;;;;12.07;8.18;;;19.80;68.30;;;;;;5079949;28;20381;-72
2021/07/03 00:50:09;;;;;;;11.90;7.78;;;19.80;68.50;;;;;;5075270;28;20029;-72
2021/07/03 00:52:36;;;;;;;11.98;7.82;;;19.80;68.30;;;;;;5074253;28;20028;-72
2021/07/03 00:55:03;;;;;;;14.35;8.52;;;19.80;68.20;;;;;;5075513;28;20024;-71
2021/07/03 00:57:28;;;;;;;10.27;7.45;;;19.80;67.90;;;;;;5075985;28;20021;-72
2021/07/03 00:59:54;;;;;;;10.32;7.78;;;19.70;68.00;;;;;;5074124;28;20484;-72
2021/07/03 01:02:20;;;;;;;14.18;7.68;;;19.70;68.00;;;;;;5075489;28;20024;-71
2021/07/03 01:04:46;;;;;;;9.50;7.07;;;19.70;68.10;;;;;;5090786;28;20028;-72
2021/07/03 01:07:12;;;;;;;9.30;7.50;;;19.70;68.10;;;;;;5095758;28;20031;-72
2021/07/03 01:09:39;;;;;;;11.68;7.93;;;19.60;67.80;;;;;;5095700;28;20039;-72
2021/07/03 01:12:06;;;;;;;14.25;7.80;;;19.60;68.20;;;;;;5095409;28;20027;-72
2021/07/03 01:14:32;;;;;;;12.00;8.30;;;19.60;68.10;;;;;;5094567;28;20100;-73
2021/07/03 01:16:59;;;;;;;10.98;7.50;;;19.60;68.40;;;;;;5095382;28;20434;-73
2021/07/03 01:19:25;;;;;;;11.90;8.13;;;19.50;68.40;;;;;;5095075;28;20056;-71
2021/07/03 01:21:52;;;;;;;9.23;6.90;;;19.50;68.50;;;;;;5095372;28;20063;-72
2021/07/03 01:24:23;;;;;;;10.20;7.18;;;19.50;68.80;;;;;;5095289;28;20024;-72
2021/07/03 01:26:52;;;;;;;15.00;7.88;;;19.50;68.80;;;;;;5093939;28;20530;-72
2021/07/03 01:29:20;;;;;;;14.88;7.03;;;19.50;68.90;;;;;;5095144;28;20131;-72
2021/07/03 01:31:47;;;;;;;16.85;7.57;;;19.40;68.80;;;;;;5093643;28;20076;-72
2021/07/03 01:34:18;;;;;;;11.82;7.45;;;19.40;68.80;;;;;;5074972;28;20473;-72
2021/07/03 01:36:43;;;;;;;11.00;7.78;;;19.30;68.50;;;;;;5074794;28;20387;-73
2021/07/03 01:39:09;;;;;;;11.48;7.85;;;19.30;68.60;;;;;;5074644;28;20056;-71
2021/07/03 01:41:36;;;;;;;11.07;8.05;;;19.20;68.60;;;;;;5074648;28;20021;-72
2021/07/03 01:44:03;;;;;;;14.88;8.02;;;19.20;68.70;;;;;;5074687;28;20486;-72
2021/07/03 01:46:28;;;;;;;13.98;8.05;;;19.20;68.40;;;;;;5084982;28;20066;-73
2021/07/03 01:48:58;;;;;;;9.50;7.38;;;19.10;68.60;;;;;;5081335;28;20456;-72
2021/07/03 01:51:24;;;;;;;12.85;7.63;;;19.00;68.90;;;;;;5089392;28;20056;-72
2021/07/03 01:53:49;;;;;;;10.77;7.88;;;19.00;68.90;;;;;;5093341;28;20051;-72
2021/07/03 01:56:15;;;;;;;9.18;6.60;;;19.00;69.10;;;;;;5092207;28;20024;-72
2021/07/03 01:58:41;;;;;;;9.02;7.00;;;18.90;69.20;;;;;;5094861;28;20016;-73
2021/07/03 02:01:06;;;;;;;10.30;6.95;;;18.90;69.40;;;;;;5092930;28;20069;-71
2021/07/03 02:03:32;;;;;;;9.95;7.78;;;18.80;69.30;;;;;;5092693;28;20492;-72
2021/07/03 02:05:58;;;;;;;9.73;6.72;;;18.80;69.40;;;;;;5093892;28;20028;-72
2021/07/03 02:08:24;;;;;;;11.57;7.15;;;18.70;69.60;;;;;;5094565;28;20107;-72
2021/07/03 02:10:50;;;;;;;9.98;7.32;;;18.70;69.60;;;;;;5094597;28;20020;-72
2021/07/03 02:13:16;;;;;;;11.75;6.80;;;18.60;69.70;;;;;;5094472;28;20028;-72
2021/07/03 02:15:42;;;;;;;8.68;6.43;;;18.60;69.70;;;;;;5094358;28;20359;-72
2021/07/03 02:18:08;;;;;;;8.93;6.18;;;18.50;69.80;;;;;;5092868;28;20024;-73
2021/07/03 02:20:34;;;;;;;11.57;7.15;;;18.50;69.80;;;;;;5076783;28;20025;-73
2021/07/03 02:23:00;;;;;;;7.47;6.60;;;18.40;69.80;;;;;;5073904;28;20024;-72
2021/07/03 02:25:28;;;;;;;14.10;7.80;;;18.30;69.80;;;;;;5073820;28;20024;-73
2021/07/03 02:27:54;;;;;;;10.55;7.50;;;18.30;69.90;;;;;;5073796;28;20035;-73
2021/07/03 02:30:21;;;;;;;9.70;7.07;;;18.20;69.90;;;;;;5073768;28;20099;-72
2021/07/03 02:32:47;;;;;;;12.30;7.43;;;18.20;70.10;;;;;;5089186;28;20673;-73
2021/07/03 02:35:15;;;;;;;9.52;7.95;;;18.20;70.20;;;;;;5073648;28;20482;-73
2021/07/03 02:37:41;;;;;;;10.18;7.43;;;18.10;70.20;;;;;;5092052;28;20016;-72
2021/07/03 02:40:10;;;;;;;9.43;6.45;;;18.10;70.30;;;;;;5093892;28;20028;-71
2021/07/03 02:42:36;;;;;;;10.43;7.68;;;18.00;70.50;;;;;;5092458;28;20028;-73
2021/07/03 02:45:05;;;;;;;16.88;9.80;;;18.00;70.70;;;;;;5092241;28;20024;-72
2021/07/03 02:47:31;;;;;;;20.92;9.40;;;17.90;71.10;;;;;;5090953;28;20020;-73
2021/07/03 02:49:56;;;;;;;12.90;8.75;;;17.90;71.40;;;;;;5073151;28;20064;-72
2021/07/03 02:52:22;;;;;;;14.20;8.35;;;17.90;71.60;;;;;;5073417;28;20044;-73
2021/07/03 02:54:49;;;;;;;13.05;8.65;;;17.90;71.80;;;;;;5072851;28;20028;-72
2021/07/03 02:57:16;;;;;;;18.45;8.70;;;17.90;71.80;;;;;;5074426;28;20024;-72
2021/07/03 02:59:42;;;;;;;15.20;8.30;;;17.90;71.80;;;;;;5072052;28;20390;-73
2021/07/03 03:02:07;;;;;;;11.90;8.00;;;17.80;71.80;;;;;;5074103;28;20025;-73
2021/07/03 03:04:33;;;;;;;14.70;9.20;;;17.80;71.90;;;;;;5073954;28;20027;-73
2021/07/03 03:06:59;;;;;;;13.98;8.65;;;17.80;71.90;;;;;;5073820;28;20394;-73
2021/07/03 03:09:26;;;;;;;14.50;9.23;;;17.70;71.90;;;;;;5072490;28;20024;-73
2021/07/03 03:11:52;;;;;;;19.63;9.20;;;17.70;71.90;;;;;;5081401;28;20028;-72
2021/07/03 03:14:18;;;;;;;13.48;8.82;;;17.60;72.00;;;;;;5087452;28;20024;-72
2021/07/03 03:16:43;;;;;;;14.80;9.68;;;17.60;72.20;;;;;;5093532;28;20020;-73
2021/07/03 03:19:09;;;;;;;14.13;9.48;;;17.60;72.20;;;;;;5093874;28;20494;-72
2021/07/03 03:21:35;;;;;;;18.17;8.95;;;17.60;72.40;;;;;;5091283;28;20020;-72
2021/07/03 03:24:01;;;;;;;13.57;9.35;;;17.60;72.50;;;;;;5093637;28;20107;-73
2021/07/03 03:26:27;;;;;;;10.98;7.30;;;17.60;72.60;;;;;;5090587;28;20538;-73
2021/07/03 03:28:53;;;;;;;14.18;8.38;;;17.50;72.50;;;;;;5086013;28;20067;-73
2021/07/03 03:31:19;;;;;;;12.05;8.63;;;17.50;72.50;;;;;;5089181;28;20392;-72
2021/07/03 03:33:45;;;;;;;14.23;8.15;;;17.50;72.50;;;;;;5072200;28;20470;-73
2021/07/03 03:36:10;;;;;;;13.25;8.32;;;17.50;72.60;;;;;;5088058;28;20020;-72
2021/07/03 03:38:36;;;;;;;10.95;7.53;;;17.50;72.70;;;;;;5093393;28;20077;-73
2021/07/03 03:41:02;;;;;;;12.23;8.55;;;17.50;72.70;;;;;;5092539;28;20078;-73
2021/07/03 03:43:28;;;;;;;9.68;7.35;;;17.50;72.80;;;;;;5086275;28;20088;-73
2021/07/03 03:45:53;;;;;;;13.35;8.20;;;17.50;73.00;;;;;;5090709;28;20111;-72
2021/07/03 03:48:19;;;;;;;10.32;7.43;;;17.50;73.00;;;;;;5091055;28;20099;-72
2021/07/03 03:50:45;;;;;;;11.18;7.57;;;17.50;73.00;;;;;;5093267;28;20461;-73
2021/07/03 03:53:11;;;;;;;12.05;8.52;;;17.50;73.10;;;;;;5087739;28;20021;-73
2021/07/03 03:55:37;;;;;;;12.13;8.20;;;17.50;72.90;;;;;;5073544;28;20112;-73
2021/07/03 03:58:04;;;;;;;13.13;9.45;;;17.50;72.80;;;;;;5072157;28;20047;-73
2021/07/03 04:00:30;;;;;;;17.30;9.85;;;17.50;72.40;;;;;;5073097;28;20521;-72
2021/07/03 04:02:56;;;;;;;13.88;9.05;;;17.50;72.50;;;;;;5073062;28;20020;-73
2021/07/03 04:05:21;;;;;;;14.60;8.82;;;17.50;72.50;;;;;;5073076;28;20032;-72
2021/07/03 04:07:47;;;;;;;10.75;8.07;;;17.50;72.60;;;;;;5073070;28;20113;-72
2021/07/03 04:10:14;;;;;;;15.18;9.25;;;17.50;72.60;;;;;;5072802;28;20028;-72
2021/07/03 04:12:41;;;;;;;11.35;8.38;;;17.50;72.40;;;;;;5071893;28;20110;-73
2021/07/03 04:15:08;;;;;;;13.25;8.60;;;17.60;72.50;;;;;;5085102;28;20035;-73
2021/07/03 04:17:34;;;;;;;12.65;8.25;;;17.60;72.50;;;;;;5092373;28;20024;-72
2021/07/03 04:20:00;;;;;;;11.77;8.10;;;17.60;72.30;;;;;;5091903;28;20437;-73
2021/07/03 04:22:26;;;;;;;21.70;9.18;;;17.60;72.30;;;;;;5093105;28;20048;-72
2021/07/03 04:24:52;;;;;;;11.80;8.60;;;17.60;71.80;;;;;;5088841;28;20413;-72
2021/07/03 04:27:18;;;;;;;20.35;9.20;;;17.60;71.90;;;;;;5073149;28;20036;-72
2021/07/03 04:29:44;;;;;;;14.98;8.07;;;17.60;71.90;;;;;;5072718;28;20025;-72
2021/07/03 04:32:09;;;;;;;9.45;8.18;;;17.60;72.30;;;;;;5072780;28;20441;-72
2021/07/03 04:34:35;;;;;;;11.20;7.85;;;17.60;72.40;;;;;;5072633;28;20024;-73
2021/07/03 04:37:01;;;;;;;13.30;8.50;;;17.60;72.40;;;;;;5072767;28;20013;-73
2021/07/03 04:39:27;;;;;;;12.25;8.07;;;17.70;72.70;;;;;;5072768;28;20024;-72
2021/07/03 04:41:53;;;;;;;10.05;7.25;;;17.70;73.00;;;;;;5078542;28;20024;-73
2021/07/03 04:44:20;;;;;;;10.88;6.90;;;17.70;73.10;;;;;;5072973;28;20363;-72
2021/07/03 04:46:47;;;;;;;12.85;6.72;;;17.80;73.30;;;;;;5072639;28;20031;-72
2021/07/03 04:49:14;;;;;;;9.93;7.53;;;17.80;73.20;;;;;;5072915;28;20103;-72
2021/07/03 04:51:41;;;;;;;11.23;7.32;;;17.90;73.20;;;;;;5072381;28;20048;-73
2021/07/03 04:54:06;;;;;;;12.27;7.93;;;18.00;73.40;;;;;;5072386;28;20379;-73
2021/07/03 04:56:32;;;;;;;9.55;6.75;;;18.00;72.90;;;;;;5072885;28;20024;-73
2021/07/03 04:58:58;;;;;;;9.52;7.05;;;18.10;72.80;;;;;;5072717;28;20146;-72
2021/07/03 05:01:24;;;;;;;8.63;6.85;;;18.10;72.90;;;;;;5071133;28;20025;-72
2021/07/03 05:03:51;;;;;;;10.70;6.95;;;18.20;73.00;;;;;;5072388;28;20031;-73
2021/07/03 05:06:17;;;;;;;8.27;6.85;;;18.30;73.10;;;;;;5072470;28;20029;-72
2021/07/03 05:08:43;;;;;;;10.35;7.22;;;18.30;72.80;;;;;;5072405;28;20032;-72
2021/07/03 05:11:09;;;;;;;10.30;7.88;;;18.40;72.60;;;;;;5072408;28;20039;-71
2021/07/03 05:13:35;;;;;;;11.98;7.32;;;18.50;72.50;;;;;;5072895;28;20032;-72
2021/07/03 05:16:01;;;;;;;8.27;6.63;;;18.50;72.60;;;;;;5072739;28;20022;-72
2021/07/03 05:18:27;;;;;;;11.63;7.60;;;18.60;72.70;;;;;;5076119;28;20401;-72
2021/07/03 05:20:53;;;;;;;15.65;8.18;;;18.70;72.30;;;;;;5092531;28;20157;-72
2021/07/03 05:23:19;;;;;;;10.57;7.47;;;18.70;71.80;;;;;;5089547;28;20028;-72
2021/07/03 05:25:46;;;;;;;23.00;7.28;;;18.80;71.70;;;;;;5092532;28;20046;-72
2021/07/03 05:28:13;;;;;;;30.25;8.60;;;18.80;71.70;;;;;;5089560;28;20025;-73
2021/07/03 05:30:40;;;;;;;17.20;6.68;;;18.90;72.10;;;;;;5077332;28;20024;-73
2021/07/03 05:33:06;;;;;;;12.75;6.05;;;18.90;72.10;;;;;;5076136;28;20035;-73
2021/07/03 05:35:32;;;;;;;11.13;6.18;;;19.00;72.20;;;;;;5073402;28;20017;-72
2021/07/03 05:37:58;;;;;;;11.70;7.05;;;19.10;72.20;;;;;;5075713;28;20028;-73
2021/07/03 05:40:24;;;;;;;20.65;8.57;;;19.10;71.80;;;;;;5081944;28;20016;-72
2021/07/03 05:42:50;;;;;;;10.88;8.35;;;19.20;71.00;;;;;;5095740;28;20027;-72
2021/07/03 05:45:16;;;;;;;11.63;8.43;;;19.20;70.00;;;;;;5075986;28;20374;-73
2021/07/03 05:47:50;;;;;;;12.82;7.93;;;19.20;69.80;;;;;;5074197;28;20390;-73
2021/07/03 05:50:26;;;;;;;11.32;8.05;;;19.30;69.90;;;;;;5092744;28;20024;-73
2021/07/03 05:52:52;;;;;;;11.68;7.30;;;19.30;69.30;;;;;;5095113;28;20381;-73
2021/07/03 05:55:19;;;;;;;16.00;8.65;;;19.40;69.30;;;;;;5095556;28;20012;-73
2021/07/03 05:57:45;;;;;;;12.23;7.97;;;19.40;69.10;;;;;;5088719;28;20378;-74
2021/07/03 06:00:12;;;;;;;21.90;7.75;;;19.50;69.40;;;;;;5075584;28;20032;-73
2021/07/03 06:02:39;;;;;;;10.32;8.35;;;19.50;68.80;;;;;;5075252;28;20029;-73
2021/07/03 06:05:06;;;;;;;12.50;8.15;;;19.50;68.10;;;;;;5075135;28;20021;-73
2021/07/03 06:07:32;;;;;;;12.45;8.05;;;19.60;69.00;;;;;;5075144;28;20024;-72
2021/07/03 06:09:58;;;;;;;10.73;7.03;;;19.60;68.60;;;;;;5075215;28;20025;-73
2021/07/03 06:12:23;;;;;;;10.80;7.85;;;19.70;69.20;;;;;;5074965;28;20111;-73
2021/07/03 06:14:49;;;;;;;9.98;8.02;;;19.70;68.10;;;;;;5075673;28;20028;-73
2021/07/03 06:17:15;;;;;;;10.23;7.72;;;19.80;68.20;;;;;;5073694;28;20032;-73
2021/07/03 06:19:43;;;;;;;9.43;7.18;;;19.90;68.60;;;;;;5082010;28;20390;-72
2021/07/03 06:22:13;;;;;;;11.85;7.90;;;19.90;68.80;;;;;;5093004;28;20115;-71
2021/07/03 06:24:40;;;;;;;10.52;7.85;;;20.00;68.10;;;;;;5095158;28;20075;-72
2021/07/03 06:27:06;;;;;;;9.23;7.40;;;20.00;68.00;;;;;;5094984;28;20046;-73
2021/07/03 06:29:31;;;;;;;9.02;7.65;;;20.10;68.80;;;;;;5093774;28;20056;-72
2021/07/03 06:31:57;;;;;;;8.65;6.40;;;20.20;68.20;;;;;;5074599;28;20444;-72
2021/07/03 06:34:23;;;;;;;8.10;6.05;;;20.20;68.90;;;;;;5086495;28;20090;-73
2021/07/03 06:36:49;;;;;;;10.45;7.20;;;20.30;68.90;;;;;;5074515;28;20104;-72
2021/07/03 06:39:15;;;;;;;7.88;6.45;;;20.40;68.20;;;;;;5078376;28;20050;-73
2021/07/03 06:41:41;;;;;;;8.32;6.80;;;20.50;67.30;;;;;;5088697;28;20569;-72
2021/07/03 06:44:07;;;;;;;12.75;7.38;;;20.50;68.10;;;;;;5084628;28;20115;-73
2021/07/03 06:46:33;;;;;;;11.32;7.28;;;20.60;67.70;;;;;;5074327;28;20095;-72
2021/07/03 06:48:58;;;;;;;12.93;7.32;;;20.60;68.40;;;;;;5073006;28;20063;-73
2021/07/03 06:51:24;;;;;;;14.80;8.10;;;20.80;67.80;;;;;;5073643;28;20076;-73
2021/07/03 06:53:50;;;;;;;15.45;8.10;;;20.80;67.20;;;;;;5071701;28;20394;-72
2021/07/03 06:56:16;;;;;;;11.73;7.15;;;20.90;67.70;;;;;;5074040;28;20021;-72
2021/07/03 06:58:42;;;;;;;10.65;7.22;;;21.00;67.20;;;;;;5073002;28;20097;-73
2021/07/03 07:01:07;;;;;;;10.77;7.28;;;21.00;67.10;;;;;;5072657;28;20028;-74
2021/07/03 07:03:33;;;;;;;15.07;7.63;;;21.10;66.30;;;;;;5083648;28;20035;-72
2021/07/03 07:05:59;;;;;;;10.75;7.55;;;21.10;65.60;;;;;;5092827;28;20030;-72
2021/07/03 07:08:25;;;;;;;8.00;6.80;;;21.20;66.10;;;;;;5094383;28;20073;-72
2021/07/03 07:10:50;;;;;;;8.13;6.40;;;21.20;65.60;;;;;;5094377;28;20141;-73
2021/07/03 07:13:16;;;;;;;9.82;7.45;;;21.30;65.80;;;;;;5092467;28;20035;-72
2021/07/03 07:15:42;;;;;;;9.35;6.38;;;21.30;64.80;;;;;;5094056;28;20035;-72
2021/07/03 07:18:08;;;;;;;11.57;7.40;;;21.40;65.30;;;;;;5086250;28;20016;-72
2021/07/03 07:20:34;;;;;;;10.88;6.95;;;21.40;65.20;;;;;;5072273;28;20028;-73
2021/07/03 07:23:00;;;;;;;9.93;7.25;;;21.50;65.40;;;;;;5087086;28;20112;-72
2021/07/03 07:25:26;;;;;;;14.38;7.97;;;21.60;65.20;;;;;;5093848;28;20032;-72
2021/07/03 07:27:52;;;;;;;12.65;7.82;;;21.60;64.60;;;;;;5093895;28;20457;-72
2021/07/03 07:30:20;;;;;;;19.45;8.10;;;21.70;64.10;;;;;;5083845;28;20028;-73
2021/07/03 07:32:47;;;;;;;14.85;7.35;;;21.70;63.50;;;;;;5072261;28;20486;-72
2021/07/03 07:35:13;;;;;;;11.88;7.68;;;21.80;64.40;;;;;;5072840;28;20021;-73
2021/07/03 07:37:39;;;;;;;9.95;6.93;;;21.80;64.90;;;;;;5079535;28;20091;-73
2021/07/03 07:40:05;;;;;;;9.40;6.38;;;21.90;64.70;;;;;;5093567;28;20526;-73
2021/07/03 07:42:31;;;;;;;11.45;6.75;;;22.00;64.10;;;;;;5093619;28;20020;-73
2021/07/03 07:44:57;;;;;;;9.25;7.38;;;22.00;64.30;;;;;;5077014;28;20473;-72
2021/07/03 07:47:23;;;;;;;11.18;6.93;;;22.10;63.70;;;;;;5073184;28;20036;-72
2021/07/03 07:49:48;;;;;;;11.85;6.85;;;22.10;63.50;;;;;;5073447;28;20109;-72
2021/07/03 07:52:14;;;;;;;10.10;6.78;;;22.20;64.60;;;;;;5072994;28;20074;-72
2021/07/03 07:54:40;;;;;;;9.20;6.65;;;22.30;63.80;;;;;;5073130;28;20020;-73
2021/07/03 07:57:06;;;;;;;9.55;7.03;;;22.30;63.10;;;;;;5071806;28;20021;-71
2021/07/03 07:59:32;;;;;;;7.32;5.65;;;22.40;62.90;;;;;;5072936;28;20032;-72
2021/07/03 08:01:57;;;;;;;8.80;6.63;;;22.40;64.30;;;;;;5072963;28;20025;-72
2021/07/03 08:04:23;;;;;;;8.43;6.72;;;22.50;64.00;;;;;;5071905;28;20127;-73
2021/07/03 08:06:49;;;;;;;8.52;5.85;;;22.60;63.20;;;;;;5073041;28;20039;-73
2021/07/03 08:09:15;;;;;;;10.20;6.13;;;22.60;62.90;;;;;;5072861;28;20059;-72
2021/07/03 08:11:41;;;;;;;8.85;6.38;;;22.70;62.50;;;;;;5071392;28;20060;-72
2021/07/03 08:14:07;;;;;;;9.18;5.85;;;22.80;62.70;;;;;;5083788;28;20028;-72
2021/07/03 08:16:32;;;;;;;10.82;6.25;;;22.80;62.40;;;;;;5092097;28;20024;-72
2021/07/03 08:18:58;;;;;;;8.30;6.00;;;22.90;61.90;;;;;;5081787;28;20494;-73
2021/07/03 08:21:24;;;;;;;13.00;6.15;;;22.90;61.30;;;;;;5080893;28;20066;-72
2021/07/03 08:23:51;;;;;;;10.35;5.97;;;23.00;60.00;;;;;;5092097;28;20024;-72
2021/07/03 08:26:17;;;;;;;7.88;5.78;;;23.00;60.60;;;;;;5088802;28;20048;-73
2021/07/03 08:28:43;;;;;;;8.38;5.88;;;23.10;60.20;;;;;;5092625;28;20037;-73
2021/07/03 08:31:09;;;;;;;9.02;6.30;;;23.10;60.10;;;;;;5092946;28;20031;-73
2021/07/03 08:33:34;;;;;;;9.05;5.68;;;23.10;59.30;;;;;;5080709;28;20025;-73
2021/07/03 08:36:00;;;;;;;9.02;5.90;;;23.20;59.00;;;;;;5087840;28;20483;-72
2021/07/03 08:38:26;;;;;;;11.13;6.47;;;23.20;58.10;;;;;;5080763;28;20473;-73
2021/07/03 08:40:54;;;;;;;9.73;5.88;;;23.30;57.40;;;;;;5080889;28;20025;-73
2021/07/03 08:43:20;;;;;;;14.60;6.38;;;23.30;58.50;;;;;;5071962;28;20466;-73
2021/07/03 08:45:46;;;;;;;9.65;5.40;;;23.30;57.40;;;;;;5079728;28;20039;-73
2021/07/03 08:48:18;;;;;;;7.65;6.03;;;23.40;59.20;;;;;;5091406;28;20047;-72
2021/07/03 08:50:44;;;;;;;8.15;5.75;;;23.40;58.40;;;;;;5091197;28;20060;-73
2021/07/03 08:53:10;;;;;;;13.25;5.68;;;23.50;57.40;;;;;;5091505;28;20020;-72
2021/07/03 08:55:36;;;;;;;7.65;6.03;;;23.50;56.60;;;;;;5091466;28;20055;-71
2021/07/03 08:58:09;;;;;;;10.05;6.15;;;23.60;57.40;;;;;;5083769;28;20078;-73
2021/07/03 09:00:37;;;;;;;9.37;6.30;;;23.70;58.50;;;;;;5086456;28;20016;-71
2021/07/03 09:03:15;;;;;;;6.13;5.45;;;23.80;58.40;;;;;;5082590;28;20040;-72
2021/07/03 09:05:59;;;;;;;6.40;5.53;;;23.80;57.40;;;;;;5091618;28;20020;-71
2021/07/03 09:08:29;;;;;;;7.10;5.40;;;23.80;56.40;;;;;;5087339;28;20037;-72
2021/07/03 09:11:00;;;;;;;6.88;5.40;;;23.90;57.30;;;;;;5085797;28;20521;-73
2021/07/03 09:13:26;;;;;;;6.68;5.25;;;24.00;56.50;;;;;;5084325;28;20028;-73
2021/07/03 09:15:52;;;;;;;7.80;5.78;;;24.10;56.20;;;;;;5091288;28;20066;-73
2021/07/03 09:18:18;;;;;;;8.43;5.25;;;24.10;56.90;;;;;;5094027;28;20020;-72
2021/07/03 09:20:55;;;;;;;11.85;5.80;;;24.20;56.50;;;;;;5093774;28;20042;-73
2021/07/03 09:23:40;;;;;;;8.45;5.75;;;24.30;55.90;;;;;;5088449;28;20031;-72
2021/07/03 09:26:11;;;;;;;7.75;5.55;;;24.40;55.90;;;;;;5086533;28;20489;-73
2021/07/03 09:28:40;;;;;;;6.93;4.45;;;24.50;53.80;;;;;;5093053;28;20036;-74
2021/07/03 09:31:08;;;;;;;6.00;5.10;;;24.50;55.20;;;;;;5090884;28;20032;-74
2021/07/03 09:33:44;;;;;;;6.55;5.53;;;24.50;53.20;;;;;;5093064;28;20035;-72
2021/07/03 09:36:13;;;;;;;8.45;5.45;;;24.60;53.20;;;;;;5090190;28;20047;-72
2021/07/03 09:38:46;;;;;;;7.25;5.18;;;24.70;53.30;;;;;;5087633;28;20023;-72
2021/07/03 09:41:21;;;;;;;6.13;5.20;;;24.80;55.00;;;;;;5092880;28;20021;-72
2021/07/03 09:43:52;;;;;;;6.00;5.40;;;24.80;52.50;;;;;;5089390;28;20139;-72
2021/07/03 09:46:26;;;;;;;7.80;5.18;;;24.80;52.40;;;;;;5093141;28;20446;-73
2021/07/03 09:48:54;;;;;;;11.23;5.40;;;24.90;52.40;;;;;;5092752;28;20077;-72
2021/07/03 09:51:25;;;;;;;6.07;4.72;;;24.90;53.30;;;;;;5092632;28;20520;-73
2021/07/03 09:53:51;;;;;;;6.28;4.88;;;25.00;52.70;;;;;;5093807;28;20024;-72
2021/07/03 09:56:17;;;;;;;6.85;4.95;;;25.10;51.60;;;;;;5093227;28;20028;-73
2021/07/03 09:58:44;;;;;;;7.13;5.22;;;25.10;51.50;;;;;;5086350;28;20056;-72
2021/07/03 10:01:10;;;;;;;7.68;5.40;;;25.20;53.80;;;;;;5093259;28;20028;-72
2021/07/03 10:03:38;;;;;;;7.43;5.65;;;25.30;52.30;;;;;;5084297;28;20081;-73
2021/07/03 10:06:05;;;;;;;7.15;5.97;;;25.40;52.30;;;;;;5084304;28;20024;-73
2021/07/03 10:08:37;;;;;;;7.35;5.68;;;25.60;52.80;;;;;;5091564;28;20089;-73
2021/07/03 10:11:04;;;;;;;5.78;4.63;;;25.80;51.40;;;;;;5093347;28;20024;-71
2021/07/03 10:13:32;;;;;;;7.63;4.38;;;26.00;52.70;;;;;;5086228;28;20039;-73
2021/07/03 10:16:03;;;;;;;10.15;5.05;;;26.10;50.90;;;;;;5077998;28;20032;-72
2021/07/03 10:18:30;;;;;;;9.25;7.35;;;26.20;51.70;;;;;;5072260;28;20074;-71
2021/07/03 10:21:09;;;;;;;7.65;5.63;;;26.30;52.90;;;;;;5087327;28;20043;-72
2021/07/03 10:23:41;;;;;;;4.63;4.00;;;26.40;52.50;;;;;;5085326;28;20036;-73
2021/07/03 10:26:09;;;;;;;5.85;4.55;;;26.50;50.30;;;;;;5093312;28;20175;-72
2021/07/03 10:28:37;;;;;;;7.35;5.13;;;26.50;50.80;;;;;;5082668;28;20032;-71
2021/07/03 10:31:08;;;;;;;7.07;5.10;;;26.50;51.30;;;;;;5088876;28;20366;-71
2021/07/03 10:34:04;;;;;;;5.93;4.88;;;26.50;50.80;;;;;;5092936;28;20385;-72
2021/07/03 10:36:31;;;;;;;5.95;4.45;;;26.50;52.20;;;;;;5064553;28;20041;-72
2021/07/03 10:38:59;;;;;;;5.20;4.30;;;26.50;50.50;;;;;;5074415;28;20043;-72
2021/07/03 10:41:28;;;;;;;8.98;5.03;;;26.50;52.00;;;;;;5093569;28;20080;-72
2021/07/03 10:43:59;;;;;;;5.10;4.25;;;26.50;50.80;;;;;;5076092;28;20081;-72
2021/07/03 10:46:39;;;;;;;5.90;4.95;;;26.60;51.20;;;;;;5076074;28;20085;-71
2021/07/03 10:49:14;;;;;;;5.97;4.65;;;26.60;51.10;;;;;;5081454;28;20386;-71
2021/07/03 10:51:49;;;;;;;5.88;4.78;;;26.70;51.40;;;;;;5081698;28;20137;-73
2021/07/03 10:54:20;;;;;;;10.98;6.22;;;26.70;50.40;;;;;;5083059;28;20031;-72
2021/07/03 10:57:15;;;;;;;5.95;4.80;;;26.70;51.40;;;;;;5074574;28;20382;-72
2021/07/03 10:59:42;;;;;;;7.65;4.90;;;26.70;50.20;;;;;;5086200;28;20040;-71
2021/07/03 11:02:15;;;;;;;8.15;4.70;;;26.70;49.10;;;;;;5087306;28;20032;-72
2021/07/03 11:05:08;;;;;;;6.70;4.75;;;26.70;49.30;;;;;;5087762;28;20085;-72
2021/07/03 11:07:34;;;;;;;8.38;5.25;;;26.70;49.40;;;;;;5090312;28;20439;-72
2021/07/03 11:10:15;;;;;;;5.68;4.90;;;26.70;48.00;;;;;;5074071;28;20020;-72
2021/07/03 11:12:47;;;;;;;4.78;3.83;;;26.80;48.50;;;;;;5073892;28;20035;-72
2021/07/03 11:15:15;;;;;;;9.27;5.03;;;26.80;48.20;;;;;;5082900;28;20099;-72
2021/07/03 11:17:41;;;;;;;9.70;5.13;;;26.80;46.70;;;;;;5088500;28;20099;-72
2021/07/03 11:20:07;;;;;;;5.43;4.18;;;26.80;50.00;;;;;;5092399;28;20528;-72
2021/07/03 11:22:40;;;;;;;7.97;4.68;;;26.80;45.40;;;;;;5079853;28;20071;-71
2021/07/03 11:25:06;;;;;;;5.15;4.05;;;26.80;43.80;;;;;;5073566;28;20074;-72
2021/07/03 11:27:37;;;;;;;4.80;3.92;;;26.70;47.00;;;;;;5074574;28;20024;-72
2021/07/03 11:30:17;;;;;;;4.40;4.00;;;26.70;47.90;;;;;;5089184;28;20024;-71
2021/07/03 11:32:49;;;;;;;4.72;4.22;;;26.80;47.40;;;;;;5083590;28;20035;-71
2021/07/03 11:35:15;;;;;;;5.50;4.20;;;26.80;47.30;;;;;;5087675;28;20035;-72
2021/07/03 11:37:41;;;;;;;7.97;4.60;;;26.90;49.20;;;;;;5093560;28;20031;-72
2021/07/03 11:40:20;;;;;;;9.50;4.57;;;26.90;46.50;;;;;;5086360;28;20430;-73
2021/07/03 11:42:50;;;;;;;4.93;4.30;;;27.00;47.70;;;;;;5072276;28;20052;-74
2021/07/03 11:45:20;;;;;;;5.45;4.10;;;27.10;48.00;;;;;;5075468;28;20035;-73
2021/07/03 11:47:48;;;;;;;6.03;4.43;;;27.10;46.30;;;;;;5075315;28;20104;-73
2021/07/03 11:50:26;;;;;;;9.38;4.25;;;27.10;45.30;;;;;;5090229;28;20031;-72
2021/07/03 11:52:54;;;;;;;5.05;3.97;;;27.20;45.50;;;;;;5093393;28;20020;-73
2021/07/03 11:55:23;;;;;;;7.40;4.03;;;27.20;46.20;;;;;;5089971;28;20050;-73
2021/07/03 11:57:50;;;;;;;6.03;4.28;;;27.20;44.50;;;;;;5090886;28;20016;-73
2021/07/03 12:00:23;;;;;;;4.70;4.07;;;27.30;47.30;;;;;;5092665;28;20024;-72
2021/07/03 12:02:49;;;;;;;3.90;3.50;;;27.30;45.00;;;;;;5082662;28;20027;-73
2021/07/03 12:05:20;;;;;;;13.10;4.13;;;27.50;46.90;;;;;;5087145;28;20028;-72
2021/07/03 12:07:56;;;;;;;4.43;3.83;;;27.60;46.40;;;;;;5085810;28;20035;-72
2021/07/03 12:10:44;;;;;;;5.68;4.10;;;27.80;44.80;;;;;;5073987;28;20528;-72
2021/07/03 12:13:20;;;;;;;5.45;4.18;;;27.80;44.00;;;;;;5080258;28;20067;-73
2021/07/03 12:16:06;;;;;;;7.03;4.00;;;28.00;45.50;;;;;;5091984;28;20020;-73
2021/07/03 12:18:41;;;;;;;4.93;4.10;;;28.10;46.00;;;;;;5080727;28;20043;-71
2021/07/03 12:21:18;;;;;;;4.40;4.00;;;28.30;44.30;;;;;;5079395;28;20382;-72
2021/07/03 12:23:47;;;;;;;5.45;4.15;;;28.30;45.40;;;;;;5092103;28;20028;-72
2021/07/03 12:26:14;;;;;;;6.18;3.80;;;28.40;42.40;;;;;;5091757;28;20024;-72
2021/07/03 12:28:51;;;;;;;9.20;4.75;;;28.50;43.00;;;;;;5091978;28;20024;-73
2021/07/03 12:31:17;;;;;;;6.10;3.40;;;28.60;42.60;;;;;;5091732;28;20287;-72
2021/07/03 12:33:43;;;;;;;4.93;4.20;;;28.70;46.90;;;;;;5092030;28;20020;-73
2021/07/03 12:36:19;;;;;;;5.10;3.90;;;28.80;43.50;;;;;;5079533;28;20028;-73
2021/07/03 12:38:45;;;;;;;9.27;4.18;;;28.90;42.70;;;;;;5094706;28;20382;-72
2021/07/03 12:41:12;;;;;;;5.68;4.10;;;28.90;44.90;;;;;;5083576;28;20043;-72
2021/07/03 12:43:40;;;;;;;4.38;3.40;;;29.00;41.50;;;;;;5095935;28;20465;-73